West Mansfield, Ohio
Current Conditions -  °F | °C
As of 8:30 PM on Thursday 27 Nov 2014 (Local Time) from KEDJ Reporting Station
Overcast Overcast  
Wind Chill: -9°   Ceiling: 1600
Heat Index: -3°   Visibility: 10mi
Dew Point: -5°   Wind: 13mph
Humidity: 86%   Direction: 290°WNW
Pressure: 30.31"   Gusts: NA
Location:  40.4°N, 83.55°W
Report Text: KEDJ 280130Z AUTO 29011KT 10SM BKN016 OVC023 M03/M05 A3031 RMK AO1
Loading
Personal Weather Stations






























Interactive Weather Map New forecast layout! Learn more

10-Day Weather Forecast

Advertisements
Track Severe Weather on mobile